Time;durP1;ratioP1;P1;durP2;ratioP2;P2;SDS_P1;SDS_P2;PMS_P1;PMS_P2;Temp;Humidity;BMP_temperature;BMP_pressure;BME280_temperature;BME280_humidity;BME280_pressure;Samples;Min_cycle;Max_cycle;Signal;HPM_P1;HPM_P2
2022/02/10 00:14:07;;;;;;;10.13;5.72;;;6.00;99.90;;;;;;5117754;28;20019;-70
2022/02/10 00:22:27;;;;;;;9.40;5.05;;;5.90;99.90;;;;;;5100675;28;20087;-68
2022/02/10 00:35:59;;;;;;;10.98;5.22;;;6.10;99.90;;;;;;5118664;28;20076;-68
2022/02/10 00:38:30;;;;;;;11.80;5.95;;;6.10;99.90;;;;;;5121268;28;20084;-66
2022/02/10 00:40:56;;;;;;;10.77;5.28;;;5.90;99.90;;;;;;5121492;28;20490;-67
2022/02/10 00:43:24;;;;;;;12.77;5.77;;;5.90;99.90;;;;;;5117398;28;20031;-68
2022/02/10 00:45:50;;;;;;;9.35;5.43;;;5.70;99.90;;;;;;5117714;28;20031;-68
2022/02/10 00:48:17;;;;;;;11.07;5.53;;;5.90;99.90;;;;;;5118392;28;20027;-68
2022/02/10 00:50:52;;;;;;;;;;;5.90;99.90;;;;;;5118580;28;20107;-68
2022/02/10 00:53:27;;;;;;;11.32;5.38;;;5.90;99.90;;;;;;5121011;28;19910;-68
2022/02/10 00:55:53;;;;;;;10.68;5.40;;;5.80;99.90;;;;;;5125560;28;20314;-67
2022/02/10 00:58:27;;;;;;;12.23;5.40;;;5.70;99.90;;;;;;5125979;28;20016;-67
2022/02/10 01:30:18;;;;;;;8.95;4.88;;;5.20;99.90;;;;;;5116838;28;20383;-68
2022/02/10 01:32:47;;;;;;;9.85;4.78;;;5.20;99.90;;;;;;5114987;28;20023;-68
2022/02/10 01:35:19;;;;;;;8.50;4.78;;;5.20;99.90;;;;;;5116818;27;20034;-68
2022/02/10 01:37:44;;;;;;;13.13;5.93;;;5.30;99.90;;;;;;5122766;28;20022;-68
2022/02/10 01:40:22;;;;;;;12.10;5.43;;;5.20;99.90;;;;;;5118843;28;20028;-67
2022/02/10 02:04:11;;;;;;;9.88;5.15;;;5.10;99.90;;;;;;5116424;28;20034;-62
2022/02/10 02:06:45;;;;;;;8.60;4.97;;;5.20;99.90;;;;;;5116274;28;20028;-61
2022/02/10 02:09:14;;;;;;;12.15;5.13;;;5.30;99.90;;;;;;5116694;28;20108;-61
2022/02/10 02:11:40;;;;;;;10.82;5.45;;;5.30;99.90;;;;;;5097622;28;20027;-62
2022/02/10 02:14:07;;;;;;;;;;;5.30;99.90;;;;;;5116367;28;20023;-60
2022/02/10 02:16:33;;;;;;;12.93;5.13;;;5.30;99.90;;;;;;5116142;28;19908;-62
2022/02/10 02:18:59;;;;;;;11.23;5.47;;;5.20;99.90;;;;;;5098724;28;20031;-62
2022/02/10 02:21:24;;;;;;;16.53;9.17;;;5.20;99.90;;;;;;5117385;28;20032;-61
2022/02/10 02:23:50;;;;;;;25.23;12.70;;;5.20;99.90;;;;;;5121085;28;20106;-61
2022/02/10 02:26:22;;;;;;;10.85;5.53;;;5.30;99.90;;;;;;5121041;28;20084;-61
2022/02/10 02:28:53;;;;;;;27.15;14.45;;;5.20;99.90;;;;;;5121169;28;20035;-62
2022/02/10 02:31:25;;;;;;;11.27;6.30;;;5.10;99.90;;;;;;5102734;28;20069;-62
2022/02/10 03:08:58;;;;;;;12.37;5.17;;;4.80;99.90;;;;;;5114118;28;20103;-58
2022/02/10 03:11:24;;;;;;;10.27;4.75;;;4.70;99.90;;;;;;5095626;28;20035;-58
2022/02/10 03:13:59;;;;;;;8.00;4.90;;;4.70;99.90;;;;;;5114039;28;20024;-56
2022/02/10 03:16:53;;;;;;;6.93;4.85;;;4.80;99.90;;;;;;5114079;28;20273;-59
2022/02/10 04:10:51;;;;;;;9.32;4.43;;;4.50;99.90;;;;;;5117962;28;20421;-59
2022/02/10 04:13:14;;;;;;;9.43;4.55;;;4.50;99.90;;;;;;5116030;28;20103;-62
2022/02/10 04:18:57;;;;;;;11.37;4.50;;;4.50;99.90;;;;;;5117586;28;20068;-62
2022/02/10 04:24:03;;;;;;;7.40;3.80;;;4.60;99.90;;;;;;5116934;28;20098;-60
2022/02/10 04:37:49;;;;;;;7.70;4.20;;;4.40;99.90;;;;;;5118532;28;20035;-61
2022/02/10 04:56:32;;;;;;;15.68;8.05;;;4.30;99.90;;;;;;5116493;28;20073;-60
2022/02/10 04:59:17;;;;;;;10.80;4.93;;;4.30;99.90;;;;;;5117990;28;20069;-59
2022/02/10 05:02:04;;;;;;;7.85;4.10;;;4.30;99.90;;;;;;5102250;28;20038;-62
2022/02/10 05:07:41;;;;;;;8.02;3.95;;;4.30;99.90;;;;;;5117403;28;20020;-61
2022/02/10 05:23:52;;;;;;;9.20;3.67;;;4.40;99.90;;;;;;5116555;28;20440;-62
2022/02/10 05:32:05;;;;;;;7.72;4.20;;;4.40;99.90;;;;;;5117987;28;20540;-65
2022/02/10 05:34:39;;;;;;;6.28;3.88;;;4.40;99.90;;;;;;5117677;28;20116;-63
2022/02/10 05:37:05;;;;;;;8.27;4.28;;;4.40;99.90;;;;;;5119696;28;20186;-61
2022/02/10 05:39:34;;;;;;;9.18;4.28;;;4.50;99.90;;;;;;5100835;28;20028;-64
2022/02/10 06:01:04;;;;;;;6.80;3.80;;;4.50;99.90;;;;;;5122636;28;20051;-60
2022/02/10 06:46:02;;;;;;;12.32;5.60;;;4.40;99.90;;;;;;5116075;28;20026;-57
2022/02/10 06:52:02;;;;;;;13.43;6.38;;;4.50;99.90;;;;;;5114706;28;20019;-60
2022/02/10 08:53:53;;;;;;;9.57;4.03;;;7.80;99.90;;;;;;5076978;28;20020;-64
2022/02/10 10:02:38;;;;;;;11.77;5.03;;;10.30;99.90;;;;;;5075249;28;20082;-65
2022/02/10 10:21:36;;;;;;;10.32;5.50;;;10.20;99.90;;;;;;5075401;28;20141;-64
2022/02/10 10:27:11;;;;;;;11.18;5.18;;;10.20;99.90;;;;;;5075537;28;20111;-65
2022/02/10 10:55:03;;;;;;;11.63;5.65;;;9.60;99.90;;;;;;5073785;28;20039;-64
2022/02/10 10:57:33;;;;;;;10.85;6.35;;;9.60;99.90;;;;;;5073912;28;20028;-65
2022/02/10 11:39:46;;;;;;;14.73;5.65;;;8.90;99.90;;;;;;5073723;28;20064;-64
2022/02/10 11:42:30;;;;;;;8.90;5.23;;;8.80;99.90;;;;;;5073360;28;20039;-64
2022/02/10 11:48:13;;;;;;;8.70;5.03;;;8.80;99.90;;;;;;5073573;28;20029;-64
2022/02/10 13:30:56;;;;;;;10.20;4.65;;;9.00;99.90;;;;;;5075451;28;20025;-63
2022/02/10 13:34:16;;;;;;;11.05;5.43;;;9.00;99.90;;;;;;5075125;28;20063;-63
2022/02/10 14:09:11;;;;;;;7.03;3.63;;;8.80;99.90;;;;;;5116398;28;20030;-67
2022/02/10 14:14:31;;;;;;;8.98;5.20;;;8.80;99.90;;;;;;5115933;28;20035;-68
2022/02/10 14:17:03;;;;;;;8.70;4.10;;;8.80;99.90;;;;;;5115419;28;20059;-64
2022/02/10 14:19:58;;;;;;;7.55;4.80;;;8.80;99.90;;;;;;5116068;28;20022;-67
2022/02/10 14:27:41;;;;;;;9.40;4.35;;;8.80;99.90;;;;;;5115946;28;20035;-68
2022/02/10 14:30:07;;;;;;;8.07;4.65;;;8.80;99.90;;;;;;5097661;28;20024;-65
2022/02/10 14:32:40;;;;;;;10.13;4.80;;;8.80;99.90;;;;;;5115456;28;20055;-65
2022/02/10 14:41:50;;;;;;;9.55;4.93;;;8.80;99.90;;;;;;5116587;28;20034;-67
2022/02/10 15:56:50;;;;;;;6.72;4.18;;;8.10;99.90;;;;;;5114569;28;20038;-62
2022/02/10 16:16:37;;;;;;;10.18;4.70;;;8.00;99.90;;;;;;5114903;28;20030;-66
2022/02/10 16:18:43;;;;;;;9.50;4.82;;;8.00;99.90;;;;;;5113648;28;20024;-69
2022/02/10 16:21:11;;;;;;;11.35;6.03;;;8.10;99.90;;;;;;5096118;28;20016;-65
2022/02/10 16:23:37;;;;;;;6.82;4.05;;;8.00;99.90;;;;;;5095446;28;20096;-61
2022/02/10 16:26:11;;;;;;;10.73;5.07;;;8.00;99.90;;;;;;5113837;28;20484;-62
2022/02/10 16:28:40;;;;;;;8.32;4.55;;;8.00;99.90;;;;;;5113677;28;20395;-62
2022/02/10 16:31:11;;;;;;;8.45;4.63;;;8.00;99.90;;;;;;5117688;28;20032;-63
2022/02/10 16:33:38;;;;;;;10.35;5.30;;;8.00;99.90;;;;;;5114153;28;20372;-60
2022/02/10 16:36:05;;;;;;;10.23;4.65;;;8.00;99.90;;;;;;5114809;28;20035;-62
2022/02/10 16:38:32;;;;;;;8.23;4.32;;;8.00;99.90;;;;;;5114657;28;20102;-66
2022/02/10 16:40:59;;;;;;;9.32;5.07;;;7.90;99.90;;;;;;5114577;28;20016;-61
2022/02/10 16:43:25;;;;;;;8.13;4.60;;;7.90;99.90;;;;;;5113583;28;20428;-61
2022/02/10 16:45:51;;;;;;;;;;;7.90;99.90;;;;;;5095208;28;20038;-62
2022/02/10 16:48:17;;;;;;;8.82;4.82;;;7.80;99.90;;;;;;5113518;28;19917;-61
2022/02/10 16:50:46;;;;;;;8.38;4.95;;;7.80;99.90;;;;;;5095061;28;20055;-61
2022/02/10 16:53:15;;;;;;;8.02;4.55;;;7.80;99.90;;;;;;5097535;28;20051;-62
2022/02/10 16:55:47;;;;;;;11.80;4.72;;;7.80;99.90;;;;;;5116709;28;20027;-62
2022/02/10 17:15:02;;;;;;;8.38;3.88;;;8.00;99.90;;;;;;5117102;28;20022;-59
2022/02/10 17:27:38;;;;;;;8.10;3.80;;;8.00;99.90;;;;;;5117029;28;20024;-61
2022/02/10 17:35:44;;;;;;;7.65;3.85;;;8.00;99.90;;;;;;5116727;28;20062;-60
2022/02/10 17:46:19;;;;;;;14.85;9.13;;;8.10;99.90;;;;;;5116752;28;20024;-63
2022/02/10 17:52:00;;;;;;;9.57;4.28;;;8.00;99.90;;;;;;5119492;28;20529;-65
2022/02/10 17:54:27;;;;;;;8.90;4.07;;;8.00;99.90;;;;;;5101194;28;20031;-63
2022/02/10 17:56:53;;;;;;;6.78;3.70;;;8.00;99.90;;;;;;5099223;28;20443;-60
2022/02/10 17:59:21;;;;;;;7.68;3.85;;;8.00;99.90;;;;;;5101091;28;20023;-62
2022/02/10 18:01:48;;;;;;;9.80;4.40;;;8.00;99.90;;;;;;5116515;28;20023;-63
2022/02/10 18:04:15;;;;;;;7.88;4.25;;;8.00;99.90;;;;;;5115395;28;20090;-63
2022/02/10 18:06:44;;;;;;;14.70;6.93;;;8.00;99.90;;;;;;5098458;28;20443;-63
2022/02/10 18:17:32;;;;;;;8.60;4.65;;;8.00;99.90;;;;;;5106842;28;20449;-63
2022/02/10 18:20:04;;;;;;;7.38;4.43;;;8.00;99.90;;;;;;5116470;28;20149;-61
2022/02/10 18:25:18;;;;;;;7.93;4.97;;;8.00;99.90;;;;;;5115406;28;20020;-62
2022/02/10 18:33:23;;;;;;;7.20;4.30;;;8.00;99.90;;;;;;5116089;28;20506;-60
2022/02/10 19:11:19;;;;;;;9.15;4.55;;;7.60;99.90;;;;;;5114810;28;20069;-62
2022/02/10 19:13:47;;;;;;;8.38;5.07;;;7.60;99.90;;;;;;5114404;28;20047;-62
2022/02/10 19:16:12;;;;;;;9.07;5.60;;;7.50;99.90;;;;;;5114872;28;20062;-62
2022/02/10 19:18:38;;;;;;;9.13;4.93;;;7.50;99.90;;;;;;5114259;28;20028;-61
2022/02/10 19:21:04;;;;;;;11.53;5.63;;;7.40;99.90;;;;;;5114502;28;20441;-62
2022/02/10 19:23:29;;;;;;;9.93;6.00;;;7.40;99.90;;;;;;5114731;28;20024;-62
2022/02/10 19:25:55;;;;;;;10.53;5.83;;;7.40;99.90;;;;;;5096497;28;20161;-62
2022/02/10 19:28:20;;;;;;;13.50;6.80;;;7.30;99.90;;;;;;5114387;28;20028;-61
2022/02/10 19:30:48;;;;;;;10.10;6.13;;;7.40;99.90;;;;;;5114611;28;20027;-63
2022/02/10 19:33:15;;;;;;;12.40;6.78;;;7.30;99.90;;;;;;5114775;28;20134;-62
2022/02/10 19:35:47;;;;;;;11.15;5.85;;;7.30;99.90;;;;;;5114325;28;20027;-63
2022/02/10 19:38:16;;;;;;;10.85;6.03;;;7.30;99.90;;;;;;5114133;28;20049;-62
2022/02/10 19:40:43;;;;;;;10.25;6.18;;;7.30;99.90;;;;;;5096378;28;20487;-62
2022/02/10 19:43:10;;;;;;;12.20;6.05;;;7.20;99.90;;;;;;5114684;28;20066;-62
2022/02/10 19:45:36;;;;;;;8.48;5.00;;;7.20;99.90;;;;;;5115534;28;20537;-61
2022/02/10 19:48:03;;;;;;;8.57;5.10;;;7.20;99.90;;;;;;5115750;28;20032;-62
2022/02/10 19:50:30;;;;;;;10.43;5.53;;;7.20;99.90;;;;;;5115010;28;20031;-61
2022/02/10 19:53:01;;;;;;;9.88;5.95;;;7.20;99.90;;;;;;5115360;28;20103;-61
2022/02/10 19:55:27;;;;;;;9.50;5.60;;;7.20;99.90;;;;;;5114945;28;20066;-61
2022/02/10 19:57:57;;;;;;;11.35;6.25;;;7.20;99.90;;;;;;5114788;28;20449;-61
2022/02/10 20:00:29;;;;;;;10.60;6.90;;;7.20;99.90;;;;;;5114753;28;20047;-63
2022/02/10 20:02:55;;;;;;;12.55;6.70;;;7.30;99.90;;;;;;5114874;28;20019;-62
2022/02/10 20:05:25;;;;;;;10.48;5.95;;;7.30;99.90;;;;;;5116948;28;20026;-63
2022/02/10 20:07:52;;;;;;;12.43;6.95;;;7.30;99.90;;;;;;5098948;28;20541;-60
2022/02/10 20:10:18;;;;;;;13.68;7.25;;;7.30;99.90;;;;;;5116030;28;20024;-61
2022/02/10 20:12:45;;;;;;;11.60;6.32;;;7.30;99.90;;;;;;5116106;28;20027;-61
2022/02/10 20:15:12;;;;;;;11.57;6.00;;;7.30;99.90;;;;;;5097551;28;20028;-63
2022/02/10 20:17:39;;;;;;;10.70;6.03;;;7.30;99.90;;;;;;5097728;28;20112;-62
2022/02/10 20:20:06;;;;;;;15.52;6.75;;;7.30;99.90;;;;;;5117788;28;20031;-61
2022/02/10 20:22:36;;;;;;;11.27;5.90;;;7.30;99.90;;;;;;5120416;28;20024;-63
2022/02/10 20:25:03;;;;;;;10.73;6.25;;;7.30;99.90;;;;;;5122247;28;20396;-62
2022/02/10 20:27:31;;;;;;;11.70;6.00;;;7.20;99.90;;;;;;5122003;28;20110;-63
2022/02/10 20:30:01;;;;;;;15.65;6.93;;;7.20;99.90;;;;;;5122419;28;20035;-62
2022/02/10 20:32:27;;;;;;;10.13;6.32;;;7.20;99.90;;;;;;5102287;28;20106;-63
2022/02/10 20:34:54;;;;;;;13.40;7.97;;;7.20;99.90;;;;;;5120316;28;20023;-64
2022/02/10 20:37:22;;;;;;;14.43;7.03;;;7.10;99.90;;;;;;5119430;28;20028;-63
2022/02/10 20:39:48;;;;;;;11.57;7.00;;;7.10;99.90;;;;;;5101407;28;20024;-65
2022/02/10 20:42:17;;;;;;;12.00;6.87;;;7.20;99.90;;;;;;5124085;28;20034;-63
2022/02/10 20:44:48;;;;;;;11.45;6.70;;;7.20;99.90;;;;;;5123231;28;20099;-62
2022/02/10 20:47:17;;;;;;;12.75;6.40;;;7.20;99.90;;;;;;5126039;28;20035;-63
2022/02/10 20:49:44;;;;;;;13.15;7.15;;;7.10;99.90;;;;;;5124642;28;20117;-62
2022/02/10 20:52:10;;;;;;;13.07;7.47;;;7.20;99.90;;;;;;5122391;28;20024;-62
2022/02/10 20:54:36;;;;;;;11.40;7.10;;;7.10;99.90;;;;;;5119879;28;20031;-64
2022/02/10 20:57:03;;;;;;;13.68;7.32;;;7.10;99.90;;;;;;5118955;28;20084;-62
2022/02/10 20:59:45;;;;;;;13.30;6.80;;;7.10;99.90;;;;;;5118287;28;20020;-63
2022/02/10 21:02:14;;;;;;;12.00;6.95;;;7.20;99.90;;;;;;5118379;28;20072;-65
2022/02/10 21:04:50;;;;;;;13.25;7.40;;;7.20;99.90;;;;;;5117615;28;20040;-62
2022/02/10 21:07:32;;;;;;;12.13;7.18;;;7.20;99.90;;;;;;5118403;28;20020;-64
2022/02/10 21:10:04;;;;;;;9.57;6.90;;;7.20;99.90;;;;;;5117370;28;20036;-64
2022/02/10 21:12:35;;;;;;;12.73;6.88;;;7.20;99.90;;;;;;5117295;28;20019;-66
2022/02/10 21:15:03;;;;;;;11.60;6.20;;;7.20;99.90;;;;;;5118200;28;20111;-64
2022/02/10 21:17:30;;;;;;;8.13;5.88;;;7.20;99.90;;;;;;5117759;28;20069;-64
2022/02/10 21:20:00;;;;;;;9.75;6.07;;;7.30;99.90;;;;;;5118585;28;20024;-63
2022/02/10 21:22:26;;;;;;;8.73;5.88;;;7.30;99.90;;;;;;5118242;28;20133;-65
2022/02/10 21:24:59;;;;;;;15.50;5.88;;;7.30;99.90;;;;;;5098502;28;20043;-64
2022/02/10 21:29:56;;;;;;;9.47;5.03;;;7.40;99.90;;;;;;5116526;28;20483;-65
2022/02/10 21:32:23;;;;;;;10.32;4.40;;;7.40;99.90;;;;;;5098509;28;20115;-65
2022/02/10 21:35:07;;;;;;;12.52;6.15;;;7.40;99.90;;;;;;5116686;28;20020;-64
2022/02/10 21:37:43;;;;;;;8.18;5.05;;;7.40;99.90;;;;;;5116712;28;20047;-64
2022/02/10 21:48:36;;;;;;;8.63;4.32;;;7.50;99.90;;;;;;5116261;28;20039;-64
2022/02/10 21:59:52;;;;;;;9.25;5.00;;;7.50;99.90;;;;;;5115945;28;20170;-64
2022/02/10 22:20:29;;;;;;;11.07;4.63;;;7.60;99.90;;;;;;5115586;28;20030;-63
2022/02/10 22:23:06;;;;;;;8.07;5.15;;;7.60;99.90;;;;;;5116052;28;20026;-65
2022/02/10 22:25:32;;;;;;;10.27;4.90;;;7.60;99.90;;;;;;5115813;28;20019;-64
2022/02/10 22:28:02;;;;;;;8.95;5.45;;;7.50;99.90;;;;;;5115152;28;20039;-64
2022/02/10 22:30:43;;;;;;;8.85;4.93;;;7.50;99.90;;;;;;5115171;28;20031;-65
2022/02/10 22:33:24;;;;;;;9.85;5.18;;;7.50;99.90;;;;;;5115442;28;20028;-63
2022/02/10 22:35:50;;;;;;;12.27;5.63;;;7.60;99.90;;;;;;5115145;28;20167;-63
2022/02/10 22:38:21;;;;;;;9.38;5.00;;;7.60;99.90;;;;;;5114675;28;20020;-65
2022/02/10 22:41:04;;;;;;;8.93;5.25;;;7.50;99.90;;;;;;5115162;28;20024;-64
2022/02/10 22:43:32;;;;;;;8.18;5.57;;;7.60;99.90;;;;;;5115080;28;20423;-64
2022/02/10 22:45:58;;;;;;;12.38;5.97;;;7.50;99.90;;;;;;5115833;28;20020;-65
2022/02/10 22:48:25;;;;;;;10.77;5.67;;;7.50;99.90;;;;;;5115226;28;20038;-62
2022/02/10 22:50:50;;;;;;;11.40;5.88;;;7.50;99.90;;;;;;5115043;28;20487;-63
2022/02/10 22:53:16;;;;;;;11.70;6.43;;;7.40;99.90;;;;;;5115107;28;20036;-63
2022/02/10 22:55:41;;;;;;;11.20;6.67;;;7.40;99.90;;;;;;5114387;28;20040;-65
2022/02/10 22:58:07;;;;;;;11.87;6.87;;;7.40;99.90;;;;;;5114756;28;20269;-64
2022/02/10 23:00:35;;;;;;;11.67;6.70;;;7.40;99.90;;;;;;5115088;28;20031;-64
2022/02/10 23:03:01;;;;;;;12.18;6.47;;;7.40;99.90;;;;;;5114403;28;20034;-64
2022/02/10 23:05:26;;;;;;;13.80;6.78;;;7.40;99.90;;;;;;5114177;28;20019;-64
2022/02/10 23:07:58;;;;;;;11.20;7.07;;;7.40;99.90;;;;;;5114715;28;20049;-63
2022/02/10 23:10:41;;;;;;;16.92;7.32;;;7.50;99.90;;;;;;5116028;28;20073;-64
2022/02/10 23:13:07;;;;;;;12.88;7.38;;;7.50;99.90;;;;;;5115018;28;20038;-64
2022/02/10 23:15:37;;;;;;;14.35;7.90;;;7.40;99.90;;;;;;5114474;28;20024;-63
2022/02/10 23:18:10;;;;;;;13.13;7.20;;;7.40;99.90;;;;;;5115009;28;20577;-65
2022/02/10 23:20:36;;;;;;;12.50;6.72;;;7.40;99.90;;;;;;5114604;28;20016;-63
2022/02/10 23:23:05;;;;;;;13.98;6.75;;;7.40;99.90;;;;;;5114080;28;20027;-63
2022/02/10 23:25:33;;;;;;;10.68;6.60;;;7.40;99.90;;;;;;5114498;28;20072;-63
2022/02/10 23:28:00;;;;;;;11.88;6.55;;;7.30;99.90;;;;;;5114251;28;20030;-63
2022/02/10 23:30:27;;;;;;;11.93;6.35;;;7.30;99.90;;;;;;5113941;28;20077;-64
2022/02/10 23:32:57;;;;;;;12.15;7.32;;;7.30;99.90;;;;;;5113951;28;20088;-64
2022/02/10 23:37:54;;;;;;;11.95;5.72;;;7.30;99.90;;;;;;5114303;28;20023;-64
2022/02/10 23:40:20;;;;;;;15.60;7.00;;;7.30;99.90;;;;;;5114487;28;20028;-64
2022/02/10 23:42:51;;;;;;;10.57;5.87;;;7.30;99.90;;;;;;5114525;28;20088;-64
2022/02/10 23:45:22;;;;;;;11.93;6.07;;;7.30;99.90;;;;;;5114439;28;20023;-64
2022/02/10 23:47:47;;;;;;;9.85;5.93;;;7.30;99.90;;;;;;5113780;28;20031;-64
2022/02/10 23:50:17;;;;;;;10.20;5.37;;;7.30;99.90;;;;;;5113956;28;20023;-64
2022/02/10 23:52:43;;;;;;;11.18;5.20;;;7.30;99.90;;;;;;5113649;28;20088;-64
2022/02/10 23:55:16;;;;;;;10.07;4.87;;;7.40;99.90;;;;;;5113578;28;20476;-63
2022/02/10 23:57:56;;;;;;;9.98;4.82;;;7.40;99.90;;;;;;5113772;28;20031;-63
